South Bend, IN (46556)

5:49 PM EDT on August 03, 2015 (GMT -0400)
Holy Cross Village | | Change Station
CLOSE
Current Station
Personal Weather Station
Location: Notre Dame, IN
Elevation: 719 ft
Nearby Weather Stations

Elev 719 ft 41.70 °N, 86.25 °W | Updated 5 minutes ago

Clear
Clear
77.4 °F
Feels Like 79 °F
N
6.8
Wind Variable Wind from NNE

Today
High -- | Low -- °F
--% Chance of Precip.
Yesterday
High -- | Low -- °F
Precip. -- in
6:40 AM 9:00 PM
Waning Gibbous, 84% visible
Pressure 29.85 in
Visibility 10.0 miles
Clouds Clear
Heat Index 79 °F
Dew Point 54 °F
Humidity 45%
Rainfall 0.28 in
Snow Depth Not available.
UV 6 out of 12
Pollen 4.30 out of 12
Air Quality Not available.
Flu Activity Not available.
METAR KSBN 032054Z 31010KT 10SM CLR 26/12 A2986 RMK AO2 SLP108 T02610117 51002

More Conditions Fewer Conditions

Pressure 29.85 in
Visibility 10.0 miles
Clouds Clear
Heat Index 79 °F
Dew Point 54 °F
Humidity 45%
Rainfall 0.28 in
Snow Depth Not available.
UV 6 out of 12
Pollen 4.30 out of 12
Air Quality Not available.
Flu Activity Not available.
METAR KSBN 032054Z 31010KT 10SM CLR 26/12 A2986 RMK AO2 SLP108 T02610117 51002

More Conditions Fewer Conditions

10-Day Weather Forecast

×

Almanac

Astronomy

Aug. 03, 2015 Rise Set
Actual Time
Civil Twilight
Nautical Twilight
Astronomical Twilight
Moon
Length of Visible Light
Length of Day
Tomorrow will be .
, % of the Moon is Illuminated

Today's Extremes

State Highs State Lows

Community

WunderPhotos

Upload Photos

1,843,770 photos uploaded!

WunderBlogs® & News

Nearby

Air Quality

  Air Quality AQ Index Pollutant
Not available.

Snow Depth

Station Depth Elevation

Earthquake Activity

City Distance Mag. Time & Date
Minimum magnitude displayed is 2.5.

Coastal Water Temperatures

Place Temperature

Stations

Nearby Weather Stations

Station Location Temp. Windchill Dew Point Humidity Wind Precip. Elev Updated Type